createdAt,value
2024-02-17T00:00:06.009Z,8.93
2024-02-17T00:02:33.775Z,8.95
2024-02-17T00:05:00.406Z,8.95
2024-02-17T00:07:27.330Z,8.93
2024-02-17T00:09:53.930Z,8.91
2024-02-17T00:12:20.857Z,8.91
2024-02-17T00:14:47.400Z,8.91
2024-02-17T00:17:14.119Z,8.89
2024-02-17T00:19:41.589Z,8.90
2024-02-17T00:22:08.359Z,8.88
2024-02-17T00:24:35.305Z,8.89
2024-02-17T00:27:01.986Z,8.87
2024-02-17T00:29:28.819Z,8.90
2024-02-17T00:31:55.305Z,8.89
2024-02-17T00:34:22.321Z,8.91
2024-02-17T00:36:48.988Z,8.93
2024-02-17T00:39:15.815Z,8.95
2024-02-17T00:41:43.580Z,8.94
2024-02-17T00:44:10.418Z,8.96
2024-02-17T00:46:37.247Z,8.96
2024-02-17T00:49:04.214Z,8.96
2024-02-17T00:51:30.816Z,8.95
2024-02-17T00:53:57.740Z,8.95
2024-02-17T00:56:24.266Z,8.94
2024-02-17T00:58:51.690Z,8.89
2024-02-17T01:01:26.062Z,8.91
2024-02-17T01:03:57.293Z,8.88
2024-02-17T01:06:25.263Z,8.90
2024-02-17T01:08:52.301Z,8.89
2024-02-17T01:11:20.045Z,8.89
2024-02-17T01:13:48.493Z,8.90
2024-02-17T01:16:14.972Z,8.90
2024-02-17T01:18:42.154Z,8.90
2024-02-17T01:21:08.885Z,8.93
2024-02-17T01:23:35.404Z,8.93
2024-02-17T01:26:01.890Z,8.95
2024-02-17T01:28:28.636Z,8.95
2024-02-17T01:30:55.735Z,8.97
2024-02-17T01:33:22.670Z,8.98
2024-02-17T01:35:49.270Z,8.99
2024-02-17T01:38:16.031Z,8.99
2024-02-17T01:40:42.561Z,9.01
2024-02-17T01:43:09.500Z,9.02
2024-02-17T01:45:36.991Z,9.02
2024-02-17T01:48:04.493Z,9.01
2024-02-17T01:50:31.394Z,9.02
2024-02-17T01:53:00.123Z,9.04
2024-02-17T01:55:27.894Z,9.05
2024-02-17T01:57:55.097Z,9.07
2024-02-17T02:00:23.125Z,9.07
2024-02-17T02:02:50.941Z,9.09
2024-02-17T02:05:18.414Z,9.10
2024-02-17T02:07:45.127Z,9.13
2024-02-17T02:10:12.246Z,9.13
2024-02-17T02:12:38.958Z,9.14
2024-02-17T02:15:14.693Z,9.13
2024-02-17T02:17:44.501Z,9.12
2024-02-17T02:20:14.420Z,9.13
2024-02-17T02:22:42.950Z,9.12
2024-02-17T02:25:19.715Z,9.10
2024-02-17T02:27:46.296Z,9.12
2024-02-17T02:30:13.207Z,9.10
2024-02-17T02:32:39.680Z,9.08
2024-02-17T02:35:06.631Z,9.06
2024-02-17T02:37:33.166Z,9.08
2024-02-17T02:39:59.960Z,9.08
2024-02-17T02:42:26.480Z,9.07
2024-02-17T02:44:53.429Z,9.08
2024-02-17T02:47:19.944Z,9.10
2024-02-17T02:49:47.176Z,9.09
2024-02-17T02:52:15.076Z,9.10
2024-02-17T02:54:41.922Z,9.10
2024-02-17T02:57:09.337Z,9.10
2024-02-17T02:59:36.072Z,9.09
2024-02-17T03:02:04.875Z,9.10
2024-02-17T03:04:31.634Z,9.10
2024-02-17T03:06:58.698Z,9.11
2024-02-17T03:09:25.295Z,9.13
2024-02-17T03:11:52.063Z,9.14
2024-02-17T03:14:18.709Z,9.16
2024-02-17T03:16:45.453Z,9.17
2024-02-17T03:19:12.182Z,9.18
2024-02-17T03:21:42.108Z,9.19
2024-02-17T03:24:09.073Z,9.20
2024-02-17T03:26:37.898Z,9.19
2024-02-17T03:29:05.007Z,9.19
2024-02-17T03:31:31.811Z,9.19
2024-02-17T03:34:00.517Z,9.22
2024-02-17T03:36:27.731Z,9.21
2024-02-17T03:38:54.310Z,9.22
2024-02-17T03:41:21.152Z,9.23
2024-02-17T03:43:47.669Z,9.24
2024-02-17T03:46:14.306Z,9.24
2024-02-17T03:48:40.802Z,9.25
2024-02-17T03:51:07.941Z,9.26
2024-02-17T03:53:36.562Z,9.25
2024-02-17T03:56:04.410Z,9.26
2024-02-17T03:58:30.894Z,9.28
2024-02-17T04:00:57.955Z,9.27
2024-02-17T04:03:24.610Z,9.27
2024-02-17T04:05:51.565Z,9.28
2024-02-17T04:08:18.142Z,9.28
2024-02-17T04:10:45.009Z,9.29
2024-02-17T04:13:11.551Z,9.29
2024-02-17T04:15:40.583Z,9.28
2024-02-17T04:18:09.741Z,9.30
2024-02-17T04:20:38.815Z,9.30
2024-02-17T04:23:09.032Z,9.31
2024-02-17T04:25:38.964Z,9.32
2024-02-17T04:28:06.936Z,9.31
2024-02-17T04:30:34.211Z,9.32
2024-02-17T04:33:01.317Z,9.33
2024-02-17T04:35:28.069Z,9.33
2024-02-17T04:37:55.185Z,9.32
2024-02-17T04:40:22.241Z,9.33
2024-02-17T04:42:49.242Z,9.31
2024-02-17T04:45:16.477Z,9.33
2024-02-17T04:47:43.004Z,9.32
2024-02-17T04:50:12.466Z,9.32
2024-02-17T04:52:39.212Z,9.32
2024-02-17T04:55:06.259Z,9.32
2024-02-17T04:57:33.189Z,9.32
2024-02-17T04:59:59.771Z,9.31
2024-02-17T05:02:26.873Z,9.30
2024-02-17T05:04:53.399Z,9.29
2024-02-17T05:07:20.289Z,9.28
2024-02-17T05:09:46.793Z,9.27
2024-02-17T05:12:14.162Z,9.25
2024-02-17T05:14:40.698Z,9.24
2024-02-17T05:17:07.477Z,9.22
2024-02-17T05:19:34.731Z,9.22
2024-02-17T05:22:01.653Z,9.23
2024-02-17T05:24:28.278Z,9.20
2024-02-17T05:26:55.085Z,9.22
2024-02-17T05:29:21.508Z,9.22
2024-02-17T05:31:48.353Z,9.23
2024-02-17T05:34:15.174Z,9.23
2024-02-17T05:36:41.967Z,9.23
2024-02-17T05:39:10.593Z,9.24
2024-02-17T05:41:37.380Z,9.25
2024-02-17T05:44:04.505Z,9.25
2024-02-17T05:46:31.184Z,9.29
2024-02-17T05:48:57.773Z,9.31
2024-02-17T05:51:24.705Z,9.30
2024-02-17T05:53:51.210Z,9.31
2024-02-17T05:56:17.986Z,9.30
2024-02-17T05:58:45.468Z,9.31
2024-02-17T06:01:11.955Z,9.30
2024-02-17T06:03:38.957Z,9.34
2024-02-17T06:06:05.685Z,9.33
2024-02-17T06:08:34.786Z,9.33
2024-02-17T06:11:01.744Z,9.33
2024-02-17T06:13:30.588Z,9.31
2024-02-17T06:15:57.317Z,9.33
2024-02-17T06:18:42.827Z,9.32
2024-02-17T06:21:12.368Z,9.30
2024-02-17T06:23:39.461Z,9.17
2024-02-17T06:26:06.700Z,8.99
2024-02-17T06:28:33.723Z,8.85
2024-02-17T06:31:00.450Z,8.77
2024-02-17T06:33:32.493Z,8.69
2024-02-17T06:35:59.219Z,8.61
2024-02-17T06:38:25.883Z,8.57
2024-02-17T06:40:52.379Z,8.53
2024-02-17T06:43:19.239Z,8.49
2024-02-17T06:45:46.380Z,8.46
2024-02-17T06:48:13.619Z,8.44
2024-02-17T06:50:40.122Z,8.44
2024-02-17T06:53:07.010Z,8.42
2024-02-17T06:55:34.305Z,8.43
2024-02-17T06:58:00.763Z,8.43
2024-02-17T07:00:27.598Z,8.43
2024-02-17T07:02:54.043Z,8.43
2024-02-17T07:05:20.521Z,8.43
2024-02-17T07:07:47.008Z,8.44
2024-02-17T07:10:13.756Z,8.43
2024-02-17T07:12:40.429Z,8.46
2024-02-17T07:15:07.274Z,8.49
2024-02-17T07:17:33.772Z,8.50
2024-02-17T07:20:00.872Z,8.51
2024-02-17T07:22:27.773Z,8.52
2024-02-17T07:24:55.137Z,8.52
2024-02-17T07:27:22.015Z,8.53
2024-02-17T07:29:48.966Z,8.55
2024-02-17T07:32:16.036Z,8.56
2024-02-17T07:34:44.710Z,8.58
2024-02-17T07:37:11.165Z,8.59
2024-02-17T07:39:39.924Z,8.59
2024-02-17T07:42:09.728Z,8.62
2024-02-17T07:44:37.374Z,8.62
2024-02-17T07:47:04.933Z,8.62
2024-02-17T07:49:33.877Z,8.65
2024-02-17T07:52:01.131Z,8.67
2024-02-17T07:54:28.210Z,8.68
2024-02-17T07:56:54.785Z,8.69
2024-02-17T07:59:21.584Z,8.71
2024-02-17T08:01:48.131Z,8.75
2024-02-17T08:04:15.085Z,8.78
2024-02-17T08:06:41.891Z,8.81
2024-02-17T08:09:09.248Z,8.88
2024-02-17T08:11:36.654Z,8.93
2024-02-17T08:14:05.794Z,8.97
2024-02-17T08:16:33.176Z,8.98
2024-02-17T08:19:00.202Z,9.02
2024-02-17T08:21:26.798Z,9.07
2024-02-17T08:23:53.550Z,9.12
2024-02-17T08:26:20.934Z,9.20
2024-02-17T08:28:47.665Z,9.22
2024-02-17T08:31:14.178Z,9.32
2024-02-17T08:33:41.118Z,9.35
2024-02-17T08:36:08.136Z,9.36
2024-02-17T08:38:34.780Z,9.41
2024-02-17T08:41:04.012Z,9.42
2024-02-17T08:43:30.821Z,9.41
2024-02-17T08:45:57.657Z,9.48
2024-02-17T08:48:24.508Z,9.53
2024-02-17T08:50:52.677Z,9.57
2024-02-17T08:53:22.656Z,9.59
2024-02-17T08:55:49.124Z,9.64
2024-02-17T08:58:15.927Z,9.68
2024-02-17T09:00:51.684Z,9.69
2024-02-17T09:03:19.382Z,9.66
2024-02-17T09:05:46.204Z,9.68
2024-02-17T09:08:12.646Z,9.68
2024-02-17T09:10:39.495Z,9.74
2024-02-17T09:13:05.989Z,9.71
2024-02-17T09:15:33.890Z,9.76
2024-02-17T09:18:02.076Z,9.75
2024-02-17T09:20:29.045Z,9.69
2024-02-17T09:22:55.540Z,9.68
2024-02-17T09:25:22.265Z,9.64
2024-02-17T09:27:48.836Z,9.79
2024-02-17T09:30:16.018Z,10.43
2024-02-17T09:32:42.735Z,10.94
2024-02-17T09:35:10.272Z,11.48
2024-02-17T09:37:39.425Z,11.78
2024-02-17T09:40:07.781Z,11.47
2024-02-17T09:42:34.413Z,11.22
2024-02-17T09:45:01.360Z,10.94
2024-02-17T09:47:31.625Z,10.63
2024-02-17T09:49:59.610Z,11.20
2024-02-17T09:52:27.977Z,11.87
2024-02-17T09:54:55.801Z,11.82
2024-02-17T09:57:22.275Z,12.15
2024-02-17T09:59:49.139Z,12.11
2024-02-17T10:02:15.767Z,11.73
2024-02-17T10:04:56.191Z,11.72
2024-02-17T10:07:23.043Z,12.12
2024-02-17T10:09:50.005Z,12.38
2024-02-17T10:12:18.776Z,12.18
2024-02-17T10:14:45.948Z,12.48
2024-02-17T10:17:13.529Z,12.94
2024-02-17T10:19:42.270Z,13.61
2024-02-17T10:22:09.084Z,13.27
2024-02-17T10:24:35.931Z,12.60
2024-02-17T10:27:03.516Z,12.77
2024-02-17T10:29:30.081Z,12.89
2024-02-17T10:31:59.059Z,12.66
2024-02-17T10:34:25.851Z,13.37
2024-02-17T10:36:53.685Z,13.71
2024-02-17T10:39:22.344Z,14.18
2024-02-17T10:41:49.900Z,13.52
2024-02-17T10:44:16.742Z,13.15
2024-02-17T10:46:47.512Z,12.95
2024-02-17T10:49:31.315Z,13.00
2024-02-17T10:52:04.158Z,12.85
2024-02-17T10:54:55.587Z,12.50
2024-02-17T10:57:24.149Z,12.31
2024-02-17T10:59:52.692Z,12.33
2024-02-17T11:02:25.605Z,12.44
2024-02-17T11:04:52.787Z,12.39
2024-02-17T11:07:20.960Z,12.29
2024-02-17T11:09:47.497Z,12.22
2024-02-17T11:12:29.668Z,12.31
2024-02-17T11:15:04.607Z,12.44
2024-02-17T11:17:52.543Z,12.67
2024-02-17T11:20:20.200Z,12.91
2024-02-17T11:22:56.593Z,13.25
2024-02-17T11:25:35.324Z,13.65
2024-02-17T11:28:06.466Z,13.78
2024-02-17T11:30:58.019Z,13.76
2024-02-17T11:33:31.416Z,13.42
2024-02-17T11:36:18.987Z,12.93
2024-02-17T11:38:47.457Z,12.52
2024-02-17T11:41:16.341Z,12.26
2024-02-17T11:43:43.437Z,12.06
2024-02-17T11:46:14.396Z,11.97
2024-02-17T11:48:43.051Z,11.98
2024-02-17T11:51:09.613Z,12.25
2024-02-17T11:53:36.582Z,12.84
2024-02-17T11:56:03.666Z,13.43
2024-02-17T11:58:31.419Z,13.94
2024-02-17T12:00:58.613Z,14.47
2024-02-17T12:03:29.584Z,14.44
2024-02-17T12:06:02.539Z,14.33
2024-02-17T12:08:30.298Z,13.75
2024-02-17T12:10:57.910Z,13.38
2024-02-17T12:13:25.627Z,13.08
2024-02-17T12:15:52.658Z,12.97
2024-02-17T12:18:21.427Z,13.00
2024-02-17T12:20:51.232Z,12.95
2024-02-17T12:23:18.768Z,12.98
2024-02-17T12:25:45.587Z,13.00
2024-02-17T12:28:13.229Z,13.42
2024-02-17T12:30:50.793Z,13.88
2024-02-17T12:33:22.939Z,14.23
2024-02-17T12:35:50.990Z,14.08
2024-02-17T12:38:20.945Z,13.83
2024-02-17T12:40:49.220Z,13.63
2024-02-17T12:43:20.965Z,13.46
2024-02-17T12:45:48.200Z,13.25
2024-02-17T12:48:15.422Z,13.09
2024-02-17T12:50:42.767Z,12.94
2024-02-17T12:53:16.784Z,12.85
2024-02-17T12:55:45.082Z,12.82
2024-02-17T12:58:13.172Z,12.70
2024-02-17T13:00:40.300Z,12.62
2024-02-17T13:03:10.256Z,12.60
2024-02-17T13:05:41.209Z,12.49
2024-02-17T13:08:08.390Z,12.47
2024-02-17T13:10:35.049Z,12.52
2024-02-17T13:13:01.627Z,12.55
2024-02-17T13:15:28.212Z,12.53
2024-02-17T13:17:55.082Z,12.50
2024-02-17T13:20:21.701Z,12.58
2024-02-17T13:22:48.419Z,12.77
2024-02-17T13:25:15.069Z,13.17
2024-02-17T13:27:41.677Z,13.59
2024-02-17T13:30:14.224Z,13.82
2024-02-17T13:32:44.118Z,13.69
2024-02-17T13:35:15.933Z,13.53
2024-02-17T13:37:44.447Z,13.31
2024-02-17T13:40:17.739Z,13.60
2024-02-17T13:42:45.232Z,14.39
2024-02-17T13:45:12.593Z,15.17
2024-02-17T13:47:39.798Z,15.75
2024-02-17T13:50:13.589Z,16.11
2024-02-17T13:52:40.593Z,16.66
2024-02-17T14:02:36.922Z,16.42
2024-02-17T14:05:04.083Z,15.74
2024-02-17T14:07:30.652Z,15.24
2024-02-17T14:09:57.673Z,14.63
2024-02-17T14:12:24.734Z,14.30
2024-02-17T14:14:51.494Z,14.03
2024-02-17T14:17:18.400Z,13.77
2024-02-17T14:19:47.567Z,13.76
2024-02-17T14:22:14.805Z,13.68
2024-02-17T14:24:41.973Z,13.45
2024-02-17T14:27:08.640Z,13.25
2024-02-17T14:29:37.490Z,13.30
2024-02-17T14:32:05.604Z,13.19
2024-02-17T14:34:32.631Z,13.54
2024-02-17T14:37:00.663Z,13.40
2024-02-17T14:39:28.044Z,13.29
2024-02-17T14:41:55.526Z,14.20
2024-02-17T14:44:22.198Z,15.31
2024-02-17T14:46:49.063Z,16.23
2024-02-17T14:49:15.895Z,16.88
2024-02-17T14:51:43.093Z,17.51
2024-02-17T14:54:09.723Z,17.96
2024-02-17T14:56:36.564Z,18.47
2024-02-17T14:59:03.008Z,18.61
2024-02-17T15:01:30.108Z,18.45
2024-02-17T15:03:56.864Z,18.62
2024-02-17T15:06:23.958Z,19.02
2024-02-17T15:08:50.505Z,19.16
2024-02-17T15:11:20.164Z,18.91
2024-02-17T15:13:50.531Z,18.72
2024-02-17T15:16:18.589Z,18.81
2024-02-17T15:18:45.243Z,18.72
2024-02-17T15:21:12.443Z,18.48
2024-02-17T15:23:39.173Z,18.39
2024-02-17T15:26:06.621Z,17.27
2024-02-17T15:28:34.268Z,16.03
2024-02-17T15:31:01.037Z,15.21
2024-02-17T15:33:28.743Z,14.46
2024-02-17T15:35:56.804Z,13.85
2024-02-17T15:38:26.023Z,13.32
2024-02-17T15:40:54.275Z,13.06
2024-02-17T15:43:21.847Z,12.86
2024-02-17T15:45:48.687Z,12.64
2024-02-17T15:48:15.852Z,12.45
2024-02-17T15:50:42.400Z,12.30
2024-02-17T15:53:09.832Z,12.35
2024-02-17T15:55:39.470Z,12.16
2024-02-17T15:58:06.050Z,11.95
2024-02-17T16:00:32.933Z,11.77
2024-02-17T16:03:05.977Z,11.63
2024-02-17T16:05:34.182Z,11.51
2024-02-17T16:08:01.171Z,11.34
2024-02-17T16:10:27.754Z,11.24
2024-02-17T16:12:54.617Z,11.25
2024-02-17T16:15:21.284Z,11.47
2024-02-17T16:17:48.901Z,11.52
2024-02-17T16:20:16.188Z,11.32
2024-02-17T16:22:43.999Z,10.99
2024-02-17T16:25:11.710Z,10.73
2024-02-17T16:27:39.018Z,10.48
2024-02-17T16:30:06.509Z,10.21
2024-02-17T16:32:33.409Z,9.95
2024-02-17T16:35:00.368Z,9.78
2024-02-17T16:37:27.071Z,9.63
2024-02-17T16:39:54.874Z,9.49
2024-02-17T16:42:26.888Z,9.40
2024-02-17T16:44:54.089Z,9.30
2024-02-17T16:47:21.384Z,9.19
2024-02-17T16:49:48.516Z,9.11
2024-02-17T16:52:15.900Z,9.03
2024-02-17T16:54:42.884Z,8.97
2024-02-17T16:57:09.802Z,8.91
2024-02-17T16:59:38.281Z,8.88
2024-02-17T17:02:05.690Z,8.82
2024-02-17T17:04:36.020Z,8.73
2024-02-17T17:07:08.866Z,8.61
2024-02-17T17:09:36.949Z,8.50
2024-02-17T17:12:08.191Z,8.41
2024-02-17T17:14:37.114Z,8.36
2024-02-17T17:17:04.365Z,8.29
2024-02-17T17:19:31.730Z,8.24
2024-02-17T17:21:58.831Z,8.19
2024-02-17T17:24:29.453Z,8.12
2024-02-17T17:26:56.039Z,8.07
2024-02-17T17:29:22.549Z,7.98
2024-02-17T17:31:49.330Z,7.89
2024-02-17T17:34:17.745Z,7.79
2024-02-17T17:36:44.809Z,7.67
2024-02-17T17:39:11.897Z,7.56
2024-02-17T17:41:38.476Z,7.44
2024-02-17T17:44:06.728Z,7.35
2024-02-17T17:46:33.431Z,7.23
2024-02-17T17:49:00.456Z,7.11
2024-02-17T17:51:27.378Z,7.00
2024-02-17T17:53:54.215Z,6.89
2024-02-17T17:56:20.763Z,6.81
2024-02-17T17:58:51.051Z,6.74
2024-02-17T18:04:08.819Z,6.60
2024-02-17T18:06:35.901Z,6.56
2024-02-17T18:09:02.798Z,6.45
2024-02-17T18:11:29.328Z,6.37
2024-02-17T18:13:56.262Z,6.24
2024-02-17T18:16:22.706Z,6.21
2024-02-17T18:18:49.579Z,6.12
2024-02-17T18:21:16.612Z,5.99
2024-02-17T18:23:43.546Z,5.89
2024-02-17T18:26:10.159Z,5.81
2024-02-17T18:28:36.606Z,5.70
2024-02-17T18:31:03.452Z,5.64
2024-02-17T18:33:30.101Z,5.51
2024-02-17T18:35:56.916Z,5.42
2024-02-17T18:38:25.010Z,5.32
2024-02-17T18:40:51.840Z,5.28
2024-02-17T18:43:18.380Z,5.22
2024-02-17T18:45:50.360Z,5.13
2024-02-17T18:48:17.605Z,5.09
2024-02-17T18:50:46.913Z,5.00
2024-02-17T18:53:14.586Z,4.89
2024-02-17T18:55:41.924Z,4.75
2024-02-17T18:58:08.434Z,4.66
2024-02-17T19:00:34.978Z,4.57
2024-02-17T19:03:02.007Z,4.50
2024-02-17T19:05:28.760Z,4.43
2024-02-17T19:07:55.429Z,4.35
2024-02-17T19:10:22.876Z,4.26
2024-02-17T19:12:49.885Z,4.17
2024-02-17T19:15:17.121Z,4.11
2024-02-17T19:17:43.945Z,4.02
2024-02-17T19:20:11.319Z,4.01
2024-02-17T19:22:39.065Z,3.93
2024-02-17T19:25:06.157Z,3.88
2024-02-17T19:27:33.167Z,3.88
2024-02-17T19:29:59.730Z,3.78
2024-02-17T19:32:26.414Z,3.72
2024-02-17T19:34:53.439Z,3.67
2024-02-17T19:37:20.160Z,3.68
2024-02-17T19:39:47.242Z,3.70
2024-02-17T19:42:16.146Z,3.68
2024-02-17T19:44:42.691Z,3.63
2024-02-17T19:47:09.432Z,3.56
2024-02-17T19:49:36.113Z,3.45
2024-02-17T19:52:04.162Z,3.42
2024-02-17T19:54:30.763Z,3.40
2024-02-17T19:56:57.508Z,3.27
2024-02-17T19:59:24.034Z,3.20
2024-02-17T20:01:52.692Z,3.17
2024-02-17T20:04:19.313Z,3.10
2024-02-17T20:06:46.275Z,3.07
2024-02-17T20:09:12.984Z,3.04
2024-02-17T20:11:39.956Z,3.02
2024-02-17T20:14:10.195Z,2.94
2024-02-17T20:16:37.230Z,2.84
2024-02-17T20:19:04.025Z,2.83
2024-02-17T20:21:32.556Z,2.78
2024-02-17T20:23:59.093Z,2.75
2024-02-17T20:26:25.565Z,2.67
2024-02-17T20:28:53.648Z,2.63
2024-02-17T20:31:24.319Z,2.58
2024-02-17T20:33:53.809Z,2.55
2024-02-17T20:36:22.092Z,2.58
2024-02-17T20:38:50.332Z,2.56
2024-02-17T20:41:16.842Z,2.53
2024-02-17T20:43:43.947Z,2.54
2024-02-17T20:46:11.728Z,2.54
2024-02-17T20:48:38.755Z,2.52
2024-02-17T20:51:05.469Z,2.53
2024-02-17T20:53:32.245Z,2.51
2024-02-17T20:55:58.745Z,2.52
2024-02-17T20:58:25.320Z,2.54
2024-02-17T21:00:52.003Z,2.58
2024-02-17T21:03:18.972Z,2.58
2024-02-17T21:05:49.310Z,2.58
2024-02-17T21:08:16.325Z,2.62
2024-02-17T21:10:45.703Z,2.61
2024-02-17T21:13:12.541Z,2.63
2024-02-17T21:15:39.912Z,2.65
2024-02-17T21:18:06.960Z,2.68
2024-02-17T21:20:34.418Z,2.70
2024-02-17T21:23:01.609Z,2.76
2024-02-17T21:25:28.425Z,2.82
2024-02-17T21:27:56.160Z,2.88
2024-02-17T21:30:23.190Z,2.91
2024-02-17T21:32:49.828Z,2.89
2024-02-17T21:35:16.759Z,2.84
2024-02-17T21:37:43.253Z,2.88
2024-02-17T21:40:10.270Z,2.86
2024-02-17T21:42:36.872Z,2.90
2024-02-17T21:45:03.758Z,2.91
2024-02-17T21:47:30.317Z,2.93
2024-02-17T21:49:57.632Z,2.88
2024-02-17T21:52:24.420Z,2.88
2024-02-17T21:54:51.100Z,2.87
2024-02-17T21:57:17.888Z,2.83
2024-02-17T21:59:44.470Z,2.82
2024-02-17T22:02:12.061Z,2.78
2024-02-17T22:04:39.242Z,2.75
2024-02-17T22:07:06.292Z,2.70
2024-02-17T22:09:33.146Z,2.68
2024-02-17T22:11:59.646Z,2.65
2024-02-17T22:14:26.463Z,2.61
2024-02-17T22:16:52.972Z,2.55
2024-02-17T22:19:19.755Z,2.50
2024-02-17T22:21:46.363Z,2.43
2024-02-17T22:24:13.151Z,2.35
2024-02-17T22:26:41.248Z,2.25
2024-02-17T22:29:10.513Z,2.22
2024-02-17T22:31:37.217Z,2.17
2024-02-17T22:34:04.805Z,2.08
2024-02-17T22:36:32.140Z,1.99
2024-02-17T22:38:58.921Z,2.00
2024-02-17T22:41:25.471Z,1.96
2024-02-17T22:43:51.963Z,1.94
2024-02-17T22:46:18.782Z,1.97
2024-02-17T22:48:45.305Z,1.92
2024-02-17T22:51:12.200Z,1.91
2024-02-17T22:53:38.723Z,1.93
2024-02-17T22:56:07.196Z,1.84
2024-02-17T22:58:34.452Z,1.79
2024-02-17T23:01:01.895Z,1.77
2024-02-17T23:03:29.487Z,1.72
2024-02-17T23:05:56.718Z,1.62
2024-02-17T23:08:23.265Z,1.49
2024-02-17T23:10:50.175Z,1.39
2024-02-17T23:13:16.761Z,1.31
2024-02-17T23:15:44.718Z,1.25
2024-02-17T23:18:11.463Z,1.21
2024-02-17T23:20:38.488Z,1.14
2024-02-17T23:23:12.849Z,1.13
2024-02-17T23:25:41.005Z,1.08
2024-02-17T23:28:07.804Z,1.02
2024-02-17T23:30:34.920Z,0.94
2024-02-17T23:33:01.670Z,0.89
2024-02-17T23:35:28.431Z,0.80
2024-02-17T23:37:55.191Z,0.70
2024-02-17T23:40:25.014Z,0.61
2024-02-17T23:42:52.092Z,0.58
2024-02-17T23:45:18.945Z,0.54
2024-02-17T23:47:45.548Z,0.49
2024-02-17T23:50:12.575Z,0.46
2024-02-17T23:52:39.132Z,0.46
2024-02-17T23:55:06.628Z,0.45
2024-02-17T23:57:33.216Z,0.45
2024-02-17T23:59:59.867Z,0.41
